createdAt,value
2019-02-16T00:00:53.902Z,97000.00
2019-02-16T00:03:26.011Z,96992.00
2019-02-16T00:05:58.195Z,96997.00
2019-02-16T00:08:30.146Z,97000.00
2019-02-16T00:11:02.261Z,96988.00
2019-02-16T00:13:34.204Z,96989.00
2019-02-16T00:16:06.099Z,96987.00
2019-02-16T00:18:37.990Z,96985.00
2019-02-16T00:21:10.055Z,96996.00
2019-02-16T00:23:41.926Z,96990.00
2019-02-16T00:26:13.810Z,96985.00
2019-02-16T00:28:45.664Z,96996.00
2019-02-16T00:31:17.561Z,96989.00
2019-02-16T00:33:49.474Z,96983.00
2019-02-16T00:36:21.347Z,96984.00
2019-02-16T00:38:54.182Z,96979.00
2019-02-16T00:41:26.271Z,96977.00
2019-02-16T00:43:58.127Z,96980.00
2019-02-16T00:46:30.012Z,96966.00
2019-02-16T00:49:01.888Z,96964.00
2019-02-16T00:51:34.067Z,96974.00
2019-02-16T00:54:06.364Z,96975.00
2019-02-16T00:56:38.263Z,96962.00
2019-02-16T00:59:10.150Z,96962.00
2019-02-16T01:01:42.032Z,96971.00
2019-02-16T01:04:13.907Z,96951.00
2019-02-16T01:06:46.011Z,96958.00
2019-02-16T01:09:17.875Z,96950.00
2019-02-16T01:11:49.905Z,96961.00
2019-02-16T01:14:21.776Z,96968.00
2019-02-16T01:16:53.684Z,96960.00
2019-02-16T01:19:25.531Z,96962.00
2019-02-16T01:21:57.469Z,96957.00
2019-02-16T01:24:29.346Z,96963.00
2019-02-16T01:27:01.240Z,96960.00
2019-02-16T01:29:34.031Z,96954.00
2019-02-16T01:32:05.929Z,96944.00
2019-02-16T01:34:37.820Z,96944.00
2019-02-16T01:37:10.128Z,96947.00
2019-02-16T01:39:42.152Z,96941.00
2019-02-16T01:42:14.066Z,96939.00
2019-02-16T01:44:45.926Z,96945.00
2019-02-16T01:47:17.836Z,96937.00
2019-02-16T01:49:49.713Z,96933.00
2019-02-16T01:52:21.910Z,96928.00
2019-02-16T01:54:54.285Z,96930.00
2019-02-16T01:57:26.117Z,96930.00
2019-02-16T01:59:57.988Z,96924.00
2019-02-16T02:02:29.882Z,96917.00
2019-02-16T02:05:01.757Z,96925.00
2019-02-16T02:07:33.690Z,96916.00
2019-02-16T02:10:06.293Z,96924.00
2019-02-16T02:12:38.194Z,96916.00
2019-02-16T02:15:10.605Z,96914.00
2019-02-16T02:17:42.515Z,96910.00
2019-02-16T02:20:14.376Z,96901.00
2019-02-16T02:22:46.493Z,96897.00
2019-02-16T02:25:18.461Z,96895.00
2019-02-16T02:27:50.347Z,96900.00
2019-02-16T02:30:22.227Z,96903.00
2019-02-16T02:32:54.469Z,96899.00
2019-02-16T02:35:26.362Z,96903.00
2019-02-16T02:37:58.571Z,96895.00
2019-02-16T02:40:30.429Z,96907.00
2019-02-16T02:43:02.323Z,96909.00
2019-02-16T02:45:34.246Z,96900.00
2019-02-16T02:48:06.201Z,96908.00
2019-02-16T02:50:38.064Z,96901.00
2019-02-16T02:53:09.991Z,96901.00
2019-02-16T02:55:42.402Z,96899.00
2019-02-16T02:58:16.331Z,96897.00
2019-02-16T03:00:48.213Z,96895.00
2019-02-16T03:03:20.131Z,96896.00
2019-02-16T03:05:51.991Z,96897.00
2019-02-16T03:08:24.369Z,96885.00
2019-02-16T03:10:56.244Z,96890.00
2019-02-16T03:13:28.212Z,96895.00
2019-02-16T03:16:00.068Z,96901.00
2019-02-16T03:18:31.945Z,96901.00
2019-02-16T03:21:03.811Z,96894.00
2019-02-16T03:23:35.723Z,96893.00
2019-02-16T03:26:32.670Z,96901.00
2019-02-16T03:29:34.319Z,96889.00
2019-02-16T03:33:04.011Z,96895.00
2019-02-16T03:36:43.069Z,96893.00
2019-02-16T03:39:26.956Z,96881.00
2019-02-16T03:41:58.847Z,96892.00
2019-02-16T03:44:30.727Z,96887.00
2019-02-16T03:47:02.803Z,96891.00
2019-02-16T03:49:34.661Z,96899.00
2019-02-16T03:52:13.878Z,96902.00
2019-02-16T03:54:40.085Z,96903.00
2019-02-16T03:57:12.751Z,96913.00
2019-02-16T03:59:44.611Z,96903.00
2019-02-16T04:02:16.502Z,96910.00
2019-02-16T04:04:48.349Z,96905.00
2019-02-16T04:07:20.225Z,96905.00
2019-02-16T04:09:52.090Z,96911.00
2019-02-16T04:12:24.013Z,96916.00
2019-02-16T04:14:55.860Z,96907.00
2019-02-16T04:17:27.735Z,96908.00
2019-02-16T04:19:59.584Z,96905.00
2019-02-16T04:22:31.473Z,96900.00
2019-02-16T04:25:03.326Z,96909.00
2019-02-16T04:27:35.540Z,96905.00
2019-02-16T04:30:07.935Z,96917.00
2019-02-16T04:32:39.810Z,96914.00
2019-02-16T04:35:11.653Z,96907.00
2019-02-16T04:37:43.537Z,96916.00
2019-02-16T04:40:15.389Z,96911.00
2019-02-16T04:42:47.287Z,96919.00
2019-02-16T04:45:19.125Z,96915.00
2019-02-16T04:47:51.001Z,96916.00
2019-02-16T04:50:22.834Z,96919.00
2019-02-16T04:52:54.732Z,96922.00
2019-02-16T04:55:26.585Z,96914.00
2019-02-16T04:57:59.087Z,96920.00
2019-02-16T05:00:31.002Z,96923.00
2019-02-16T05:03:02.877Z,96917.00
2019-02-16T05:05:34.720Z,96922.00
2019-02-16T05:08:06.590Z,96925.00
2019-02-16T05:10:38.432Z,96916.00
2019-02-16T05:13:10.620Z,96923.00
2019-02-16T05:15:42.462Z,96915.00
2019-02-16T05:18:14.441Z,96912.00
2019-02-16T05:20:46.286Z,96916.00
2019-02-16T05:23:19.089Z,96918.00
2019-02-16T05:25:51.234Z,96920.00
2019-02-16T05:28:23.561Z,96915.00
2019-02-16T05:30:55.410Z,96920.00
2019-02-16T05:33:27.341Z,96930.00
2019-02-16T05:35:59.206Z,96926.00
2019-02-16T05:38:31.085Z,96929.00
2019-02-16T05:41:02.963Z,96924.00
2019-02-16T05:43:34.871Z,96923.00
2019-02-16T05:46:06.716Z,96922.00
2019-02-16T05:48:38.617Z,96923.00
2019-02-16T05:51:10.477Z,96930.00
2019-02-16T05:53:42.361Z,96928.00
2019-02-16T05:56:14.238Z,96940.00
2019-02-16T05:58:46.796Z,96933.00
2019-02-16T06:01:18.678Z,96935.00
2019-02-16T06:03:50.577Z,96936.00
2019-02-16T06:06:22.434Z,96929.00
2019-02-16T06:08:54.335Z,96930.00
2019-02-16T06:11:26.180Z,96935.00
2019-02-16T06:13:58.108Z,96929.00
2019-02-16T06:16:29.973Z,96930.00
2019-02-16T06:19:01.863Z,96941.00
2019-02-16T06:21:33.725Z,96927.00
2019-02-16T06:24:05.626Z,96924.00
2019-02-16T06:26:37.489Z,96939.00
2019-02-16T06:29:09.584Z,96942.00
2019-02-16T06:31:41.443Z,96930.00
2019-02-16T06:34:13.346Z,96942.00
2019-02-16T06:36:45.201Z,96937.00
2019-02-16T06:39:17.117Z,96949.00
2019-02-16T06:41:48.979Z,96952.00
2019-02-16T06:44:20.988Z,96938.00
2019-02-16T06:46:52.818Z,96941.00
2019-02-16T06:49:24.703Z,96945.00
2019-02-16T06:51:56.559Z,96940.00
2019-02-16T06:54:28.442Z,96945.00
2019-02-16T06:57:06.822Z,96950.00
2019-02-16T06:59:39.626Z,96953.00
2019-02-16T07:02:11.857Z,96961.00
2019-02-16T07:04:43.726Z,96958.00
2019-02-16T07:07:15.569Z,96950.00
2019-02-16T07:09:47.526Z,96961.00
2019-02-16T07:12:19.364Z,96945.00
2019-02-16T07:14:52.947Z,96948.00
2019-02-16T07:17:46.731Z,96953.00
2019-02-16T07:20:20.615Z,96949.00
2019-02-16T07:22:52.856Z,96943.00
2019-02-16T07:25:24.743Z,96947.00
2019-02-16T07:27:56.601Z,96949.00
2019-02-16T07:30:28.553Z,96948.00
2019-02-16T07:33:00.465Z,96941.00
2019-02-16T07:35:32.391Z,96942.00
2019-02-16T07:38:04.232Z,96947.00
2019-02-16T07:40:36.122Z,96942.00
2019-02-16T07:43:09.629Z,96942.00
2019-02-16T07:46:00.730Z,96947.00
2019-02-16T07:48:54.620Z,96948.00
2019-02-16T07:51:40.822Z,96945.00
2019-02-16T07:54:21.353Z,96957.00
2019-02-16T07:57:12.277Z,96949.00
2019-02-16T07:59:54.683Z,96948.00
2019-02-16T08:02:45.418Z,96951.00
2019-02-16T08:05:30.241Z,96943.00
2019-02-16T08:12:07.950Z,96933.00
2019-02-16T08:16:03.050Z,96935.00
2019-02-16T08:18:57.261Z,96930.00
2019-02-16T08:23:08.846Z,96922.00
2019-02-16T08:26:17.578Z,96915.00
2019-02-16T08:29:20.458Z,96911.00
2019-02-16T08:35:23.475Z,96896.00
2019-02-16T08:38:10.122Z,96908.00
2019-02-16T08:41:06.418Z,96901.00
2019-02-16T08:44:00.313Z,96903.00
2019-02-16T08:46:52.734Z,96891.00
2019-02-16T08:49:43.832Z,96894.00
2019-02-16T08:52:44.731Z,96895.00
2019-02-16T08:55:35.665Z,96891.00
2019-02-16T08:58:28.338Z,96901.00
2019-02-16T09:01:23.988Z,96896.00
2019-02-16T09:04:13.677Z,96898.00
2019-02-16T09:07:05.805Z,96893.00
2019-02-16T09:09:55.710Z,96884.00
2019-02-16T09:12:49.893Z,96898.00
2019-02-16T09:15:42.362Z,96896.00
2019-02-16T09:18:25.957Z,96901.00
2019-02-16T09:21:15.423Z,96897.00
2019-02-16T09:23:59.108Z,96888.00
2019-02-16T09:26:42.604Z,96888.00
2019-02-16T09:29:45.582Z,96877.00
2019-02-16T09:32:30.107Z,96878.00
2019-02-16T09:35:14.601Z,96876.00
2019-02-16T09:38:02.491Z,96865.00
2019-02-16T09:40:41.351Z,96870.00
2019-02-16T09:44:22.588Z,96865.00
2019-02-16T09:47:12.642Z,96858.00
2019-02-16T09:50:09.569Z,96862.00
2019-02-16T09:52:58.536Z,96859.00
2019-02-16T09:55:47.437Z,96865.00
2019-02-16T10:01:55.789Z,96860.00
2019-02-16T10:04:36.697Z,96868.00
2019-02-16T10:07:26.219Z,96866.00
2019-02-16T10:10:15.670Z,96862.00
2019-02-16T10:13:12.337Z,96861.00
2019-02-16T10:16:09.198Z,96871.00
2019-02-16T10:19:04.722Z,96871.00
2019-02-16T10:21:54.687Z,96868.00
2019-02-16T10:24:44.307Z,96870.00
2019-02-16T10:27:23.979Z,96873.00
2019-02-16T10:30:21.101Z,96874.00
2019-02-16T10:33:14.700Z,96862.00
2019-02-16T10:36:04.934Z,96863.00
2019-02-16T10:38:59.127Z,96870.00
2019-02-16T10:42:02.007Z,96865.00
2019-02-16T10:44:45.586Z,96869.00
2019-02-16T10:47:41.363Z,96864.00
2019-02-16T10:50:28.588Z,96869.00
2019-02-16T10:53:34.794Z,96862.00
2019-02-16T10:56:40.734Z,96864.00
2019-02-16T10:59:46.691Z,96861.00
2019-02-16T11:02:35.764Z,96851.00
2019-02-16T11:05:27.826Z,96848.00
2019-02-16T11:08:12.746Z,96845.00
2019-02-16T11:10:52.672Z,96848.00
2019-02-16T11:13:52.532Z,96846.00
2019-02-16T11:17:01.463Z,96842.00
2019-02-16T11:20:04.587Z,96831.00
2019-02-16T11:22:58.376Z,96834.00
2019-02-16T11:25:51.978Z,96825.00
2019-02-16T11:28:34.557Z,96823.00
2019-02-16T11:31:31.959Z,96828.00
2019-02-16T11:34:31.781Z,96833.00
2019-02-16T11:37:21.470Z,96827.00
2019-02-16T11:40:04.534Z,96832.00
2019-02-16T11:42:54.558Z,96823.00
2019-02-16T11:45:55.463Z,96821.00
2019-02-16T11:48:42.203Z,96822.00
2019-02-16T11:51:31.508Z,96817.00
2019-02-16T11:54:28.768Z,96809.00
2019-02-16T11:57:18.379Z,96808.00
2019-02-16T12:00:15.012Z,96814.00
2019-02-16T12:02:58.145Z,96805.00
2019-02-16T12:05:54.830Z,96808.00
2019-02-16T12:08:39.649Z,96806.00
2019-02-16T12:11:28.944Z,96808.00
2019-02-16T12:14:12.243Z,96802.00
2019-02-16T12:17:03.092Z,96803.00
2019-02-16T12:19:59.797Z,96795.00
2019-02-16T12:22:49.893Z,96796.00
2019-02-16T12:25:43.720Z,96794.00
2019-02-16T12:28:43.671Z,96793.00
2019-02-16T12:31:37.337Z,96795.00
2019-02-16T12:34:31.160Z,96788.00
2019-02-16T12:37:25.029Z,96794.00
2019-02-16T12:40:05.466Z,96784.00
2019-02-16T12:42:59.271Z,96786.00
2019-02-16T12:45:51.119Z,96782.00
2019-02-16T12:48:37.393Z,96784.00
2019-02-16T12:51:21.536Z,96788.00
2019-02-16T12:54:11.328Z,96782.00
2019-02-16T12:57:07.965Z,96787.00
2019-02-16T12:59:48.289Z,96784.00
2019-02-16T13:02:37.865Z,96780.00
2019-02-16T13:05:34.602Z,96783.00
2019-02-16T13:08:24.363Z,96775.00
2019-02-16T13:11:02.904Z,96773.00
2019-02-16T13:13:41.065Z,96775.00
2019-02-16T13:16:21.870Z,96771.00
2019-02-16T13:19:06.692Z,96775.00
2019-02-16T13:22:03.529Z,96769.00
2019-02-16T13:24:57.160Z,96772.00
2019-02-16T13:27:50.684Z,96772.00
2019-02-16T13:30:37.957Z,96763.00
2019-02-16T13:33:37.645Z,96764.00
2019-02-16T13:36:18.662Z,96767.00
2019-02-16T13:39:08.388Z,96761.00
2019-02-16T13:41:56.587Z,96767.00
2019-02-16T13:44:53.611Z,96762.00
2019-02-16T13:47:43.175Z,96764.00
2019-02-16T13:50:25.584Z,96759.00
2019-02-16T13:53:16.007Z,96757.00
2019-02-16T13:55:57.357Z,96754.00
2019-02-16T13:58:57.185Z,96753.00
2019-02-16T14:01:35.993Z,96748.00
2019-02-16T14:04:33.574Z,96755.00
2019-02-16T14:07:23.567Z,96750.00
2019-02-16T14:10:06.598Z,96749.00
2019-02-16T14:12:46.517Z,96749.00
2019-02-16T14:15:37.305Z,96747.00
2019-02-16T14:18:10.265Z,96740.00
2019-02-16T14:20:42.178Z,96744.00
2019-02-16T14:23:14.015Z,96741.00
2019-02-16T14:25:47.185Z,96749.00
2019-02-16T14:28:19.100Z,96750.00
2019-02-16T14:30:50.993Z,96753.00
2019-02-16T14:33:22.846Z,96756.00
2019-02-16T14:35:59.939Z,96753.00
2019-02-16T14:38:46.140Z,96755.00
2019-02-16T14:41:18.022Z,96749.00
2019-02-16T14:43:49.871Z,96750.00
2019-02-16T14:46:21.771Z,96750.00
2019-02-16T14:48:53.614Z,96756.00
2019-02-16T14:51:25.695Z,96749.00
2019-02-16T14:53:57.533Z,96742.00
2019-02-16T14:56:30.055Z,96743.00
2019-02-16T14:59:01.905Z,96746.00
2019-02-16T15:01:33.769Z,96748.00
2019-02-16T15:04:05.618Z,96748.00
2019-02-16T15:06:37.558Z,96753.00
2019-02-16T15:09:10.128Z,96748.00
2019-02-16T15:11:42.086Z,96751.00
2019-02-16T15:14:13.934Z,96750.00
2019-02-16T15:16:45.817Z,96746.00
2019-02-16T15:19:17.663Z,96759.00
2019-02-16T15:21:49.592Z,96759.00
2019-02-16T15:24:21.454Z,96768.00
2019-02-16T15:26:53.344Z,96764.00
2019-02-16T15:29:25.189Z,96770.00
2019-02-16T15:31:57.071Z,96767.00
2019-02-16T15:34:28.925Z,96767.00
2019-02-16T15:37:01.130Z,96762.00
2019-02-16T15:39:32.982Z,96760.00
2019-02-16T15:42:04.891Z,96755.00
2019-02-16T15:44:36.753Z,96752.00
2019-02-16T15:47:08.650Z,96746.00
2019-02-16T15:49:41.165Z,96746.00
2019-02-16T15:52:13.193Z,96751.00
2019-02-16T15:54:45.067Z,96743.00
2019-02-16T15:57:16.952Z,96740.00
2019-02-16T15:59:48.876Z,96744.00
2019-02-16T16:02:20.787Z,96745.00
2019-02-16T16:04:52.642Z,96736.00
2019-02-16T16:07:24.576Z,96740.00
2019-02-16T16:10:09.891Z,96747.00
2019-02-16T16:12:48.269Z,96724.00
2019-02-16T16:15:44.958Z,96729.00
2019-02-16T16:18:48.008Z,96733.00
2019-02-16T16:21:30.001Z,96746.00
2019-02-16T16:24:19.802Z,96744.00
2019-02-16T16:27:01.135Z,96742.00
2019-02-16T16:29:55.507Z,96741.00
2019-02-16T16:33:01.358Z,96754.00
2019-02-16T16:35:51.048Z,96754.00
2019-02-16T16:38:44.695Z,96749.00
2019-02-16T16:41:51.128Z,96760.00
2019-02-16T16:44:37.703Z,96764.00
2019-02-16T16:47:44.104Z,96760.00
2019-02-16T16:50:31.810Z,96766.00
2019-02-16T16:53:28.454Z,96758.00
2019-02-16T16:56:05.531Z,96754.00
2019-02-16T16:59:02.496Z,96752.00
2019-02-16T17:01:49.383Z,96758.00
2019-02-16T17:04:44.099Z,96762.00
2019-02-16T17:07:41.117Z,96770.00
2019-02-16T17:10:47.716Z,96775.00
2019-02-16T17:13:44.443Z,96776.00
2019-02-16T17:16:23.921Z,96773.00
2019-02-16T17:19:09.812Z,96775.00
2019-02-16T17:21:57.342Z,96781.00
2019-02-16T17:24:44.319Z,96776.00
2019-02-16T17:27:29.223Z,96778.00
2019-02-16T17:30:09.442Z,96784.00
2019-02-16T17:33:00.384Z,96797.00
2019-02-16T17:35:52.576Z,96801.00
2019-02-16T17:38:49.894Z,96812.00
2019-02-16T17:41:43.424Z,96810.00
2019-02-16T17:44:46.607Z,96817.00
2019-02-16T17:47:36.289Z,96822.00
2019-02-16T17:50:26.493Z,96818.00
2019-02-16T17:53:17.248Z,96812.00
2019-02-16T17:55:59.808Z,96812.00
2019-02-16T17:58:46.534Z,96817.00
2019-02-16T18:01:40.351Z,96808.00
2019-02-16T18:04:25.845Z,96808.00
2019-02-16T18:07:15.634Z,96812.00
2019-02-16T18:10:07.859Z,96819.00
2019-02-16T18:12:59.242Z,96811.00
2019-02-16T18:15:56.279Z,96807.00
2019-02-16T18:18:41.456Z,96817.00
2019-02-16T18:21:21.684Z,96817.00
2019-02-16T18:24:04.304Z,96816.00
2019-02-16T18:26:55.843Z,96808.00
2019-02-16T18:29:39.165Z,96813.00
2019-02-16T18:32:35.570Z,96768.00
2019-02-16T18:35:25.249Z,96805.00
2019-02-16T18:38:25.296Z,96809.00
2019-02-16T18:41:20.708Z,96803.00
2019-02-16T18:44:16.303Z,96802.00
2019-02-16T18:47:01.910Z,96793.00
2019-02-16T18:49:51.666Z,96808.00
2019-02-16T18:52:51.735Z,96809.00
2019-02-16T18:55:35.508Z,96809.00
2019-02-16T18:58:42.011Z,96807.00
2019-02-16T19:01:32.789Z,96818.00
2019-02-16T19:04:33.184Z,96816.00
2019-02-16T19:07:26.936Z,96811.00
2019-02-16T19:10:08.917Z,96807.00
2019-02-16T19:12:59.689Z,96809.00
2019-02-16T19:16:01.710Z,96806.00
2019-02-16T19:18:52.466Z,96806.00
2019-02-16T19:21:35.725Z,96799.00
2019-02-16T19:24:29.292Z,96800.00
2019-02-16T19:27:26.135Z,96797.00
2019-02-16T19:30:13.733Z,96800.00
2019-02-16T19:33:00.139Z,96798.00
2019-02-16T19:35:41.817Z,96796.00
2019-02-16T19:38:31.330Z,96802.00
2019-02-16T19:41:16.544Z,96804.00
2019-02-16T19:43:59.560Z,96805.00
2019-02-16T19:46:56.146Z,96792.00
2019-02-16T19:49:46.034Z,96792.00
2019-02-16T19:52:30.979Z,96794.00
2019-02-16T19:55:20.453Z,96781.00
2019-02-16T19:57:58.041Z,96801.00
2019-02-16T20:00:48.853Z,96791.00
2019-02-16T20:03:39.663Z,96802.00
2019-02-16T20:06:29.710Z,96799.00
2019-02-16T20:09:20.752Z,96795.00
2019-02-16T20:12:29.840Z,96790.00
2019-02-16T20:15:11.682Z,96791.00
2019-02-16T20:18:09.923Z,96798.00
2019-02-16T20:21:19.130Z,96797.00
2019-02-16T20:24:22.107Z,96798.00
2019-02-16T20:27:11.767Z,96810.00
2019-02-16T20:30:04.948Z,96805.00
2019-02-16T20:32:51.825Z,96806.00
2019-02-16T20:35:46.020Z,96804.00
2019-02-16T20:38:33.431Z,96803.00
2019-02-16T20:41:13.299Z,96793.00
2019-02-16T20:44:16.058Z,96802.00
2019-02-16T20:46:56.348Z,96794.00
2019-02-16T20:49:53.369Z,96802.00
2019-02-16T20:52:42.811Z,96799.00
2019-02-16T20:55:20.341Z,96808.00
2019-02-16T20:58:13.918Z,96810.00
2019-02-16T21:01:04.921Z,96802.00
2019-02-16T21:03:59.862Z,96802.00
2019-02-16T21:06:56.699Z,96807.00
2019-02-16T21:09:50.438Z,96788.00
2019-02-16T21:12:28.040Z,96792.00
2019-02-16T21:15:16.284Z,96787.00
2019-02-16T21:18:07.744Z,96789.00
2019-02-16T21:20:58.373Z,96790.00
2019-02-16T21:24:07.579Z,96782.00
2019-02-16T21:26:54.718Z,96781.00
2019-02-16T21:29:36.436Z,96782.00
2019-02-16T21:32:26.787Z,96788.00
2019-02-16T21:35:16.114Z,96777.00
2019-02-16T21:38:25.329Z,96767.00
2019-02-16T21:41:19.139Z,96785.00
2019-02-16T21:44:06.971Z,96781.00
2019-02-16T21:46:58.468Z,96789.00
2019-02-16T21:49:47.083Z,96775.00
2019-02-16T21:52:25.738Z,96770.00
2019-02-16T21:55:08.903Z,96775.00
2019-02-16T21:58:14.806Z,96783.00
2019-02-16T22:01:23.742Z,96777.00
2019-02-16T22:04:20.818Z,96779.00
2019-02-16T22:07:15.007Z,96777.00
2019-02-16T22:10:06.943Z,96778.00
2019-02-16T22:13:07.357Z,96768.00
2019-02-16T22:15:40.178Z,96768.00
2019-02-16T22:18:12.630Z,96765.00
2019-02-16T22:20:45.171Z,96766.00
2019-02-16T22:23:18.114Z,96758.00
2019-02-16T22:25:50.584Z,96772.00
2019-02-16T22:28:30.491Z,96769.00
2019-02-16T22:30:56.586Z,96759.00
2019-02-16T22:33:28.971Z,96761.00
2019-02-16T22:36:01.680Z,96760.00
2019-02-16T22:38:35.297Z,96761.00
2019-02-16T22:41:07.169Z,96757.00
2019-02-16T22:43:39.061Z,96755.00
2019-02-16T22:46:10.922Z,96764.00
2019-02-16T22:48:43.611Z,96763.00
2019-02-16T22:51:15.859Z,96756.00
2019-02-16T22:53:49.867Z,96758.00
2019-02-16T22:56:21.826Z,96755.00
2019-02-16T22:58:54.007Z,96753.00
2019-02-16T23:01:25.865Z,96754.00
2019-02-16T23:03:59.986Z,96754.00
2019-02-16T23:06:34.161Z,96750.00
2019-02-16T23:09:12.141Z,96759.00
2019-02-16T23:11:44.779Z,96764.00
2019-02-16T23:14:20.859Z,96750.00
2019-02-16T23:16:52.769Z,96752.00
2019-02-16T23:19:30.827Z,96749.00
2019-02-16T23:22:03.809Z,96743.00
2019-02-16T23:24:35.852Z,96747.00
2019-02-16T23:27:10.587Z,96751.00
2019-02-16T23:29:44.144Z,96740.00
2019-02-16T23:32:17.153Z,96749.00
2019-02-16T23:34:53.194Z,96732.00
2019-02-16T23:37:25.488Z,96747.00
2019-02-16T23:39:57.422Z,96741.00
2019-02-16T23:42:30.563Z,96731.00
2019-02-16T23:45:05.110Z,96733.00
2019-02-16T23:47:36.980Z,96735.00
2019-02-16T23:50:10.598Z,96729.00
2019-02-16T23:52:42.592Z,96729.00
2019-02-16T23:55:14.759Z,96730.00
2019-02-16T23:57:46.603Z,96716.00
